Weather at Bremen Airport

Public forecast

Using degrees Celsius for public forecast. Weather courtesy of forecast.io.

Current aviation weather report (METAR) for Bremen Airport

Report is more than 6 hours old.

2022/11/14 15:20 (retrieved 2 years ago)

EDDW 141520Z AUTO 12008KT CAVOK 07/05 Q1013 NOSIG

Aviation forecast (TAF) for Bremen Airport

Forecast is more than 12 hours old.

2023/02/22 18:27 (retrieved 1 year ago)

TAF EDDW 221700Z 2218/2318 14004KT 9999 SCT025 BECMG 2300/2302 BKN008 TEMPO 2303/2310 3500 -RA BR BKN004 BECMG 2307/2309 28007KT BECMG 2310/2312 BKN012 TEMPO 2312/2315 BKN008 BECMG 2315/2317 34009KT SCT015